createdAt,value
2018-05-24T00:00:25.714Z,6.90
2018-05-24T00:02:53.926Z,6.20
2018-05-24T00:05:22.099Z,6.20
2018-05-24T00:07:50.335Z,6.50
2018-05-24T00:10:18.455Z,6.17
2018-05-24T00:12:46.633Z,6.30
2018-05-24T00:15:15.255Z,7.00
2018-05-24T00:17:43.434Z,6.95
2018-05-24T00:20:11.597Z,7.57
2018-05-24T00:22:39.747Z,6.73
2018-05-24T00:25:07.904Z,6.00
2018-05-24T00:27:36.207Z,7.03
2018-05-24T00:30:05.225Z,6.60
2018-05-24T00:32:33.381Z,7.23
2018-05-24T00:35:01.546Z,7.03
2018-05-24T00:37:29.759Z,6.40
2018-05-24T00:39:57.930Z,6.50
2018-05-24T00:42:26.083Z,6.53
2018-05-24T00:44:54.265Z,7.10
2018-05-24T00:47:22.414Z,7.30
2018-05-24T00:49:50.556Z,7.70
2018-05-24T00:52:18.714Z,7.57
2018-05-24T00:54:46.889Z,7.37
2018-05-24T00:57:15.048Z,7.75
2018-05-24T00:59:43.234Z,7.07
2018-05-24T01:02:11.392Z,6.87
2018-05-24T01:04:39.538Z,8.25
2018-05-24T01:07:08.324Z,7.40
2018-05-24T01:09:36.494Z,7.72
2018-05-24T01:12:04.636Z,7.70
2018-05-24T01:14:32.794Z,6.90
2018-05-24T01:17:00.944Z,8.30
2018-05-24T01:19:29.108Z,7.03
2018-05-24T01:21:57.277Z,8.13
2018-05-24T01:24:38.667Z,7.73
2018-05-24T01:27:06.825Z,8.40
2018-05-24T01:29:35.011Z,7.80
2018-05-24T01:32:03.149Z,8.07
2018-05-24T01:34:31.301Z,8.10
2018-05-24T01:37:17.787Z,9.03
2018-05-24T01:39:45.946Z,8.80
2018-05-24T01:42:14.147Z,9.37
2018-05-24T01:44:42.297Z,8.53
2018-05-24T01:47:10.716Z,9.30
2018-05-24T01:49:38.882Z,9.10
2018-05-24T01:52:07.068Z,8.65
2018-05-24T01:54:35.217Z,8.95
2018-05-24T01:57:03.378Z,9.23
2018-05-24T01:59:31.607Z,8.75
2018-05-24T02:02:00.553Z,9.02
2018-05-24T02:04:28.738Z,9.80
2018-05-24T02:06:56.887Z,9.27
2018-05-24T02:09:25.059Z,7.80
2018-05-24T02:11:53.207Z,8.83
2018-05-24T02:14:21.342Z,8.70
2018-05-24T02:16:49.517Z,9.40
2018-05-24T02:19:17.660Z,9.37
2018-05-24T02:21:45.823Z,9.10
2018-05-24T02:24:14.524Z,9.87
2018-05-24T02:26:42.689Z,9.60
2018-05-24T02:29:10.954Z,9.10
2018-05-24T02:31:39.029Z,8.57
2018-05-24T02:34:08.059Z,9.30
2018-05-24T02:36:36.748Z,9.10
2018-05-24T02:39:05.854Z,9.70
2018-05-24T02:41:34.024Z,9.73
2018-05-24T02:44:02.209Z,9.63
2018-05-24T02:46:31.085Z,9.13
2018-05-24T02:48:59.280Z,9.30
2018-05-24T02:51:27.430Z,9.37
2018-05-24T02:53:55.606Z,9.57
2018-05-24T02:56:23.786Z,9.37
2018-05-24T02:58:51.914Z,9.80
2018-05-24T03:01:20.116Z,10.02
2018-05-24T03:03:48.305Z,9.23
2018-05-24T03:06:16.480Z,9.65
2018-05-24T03:08:44.660Z,9.63
2018-05-24T03:11:12.825Z,10.17
2018-05-24T03:13:41.904Z,9.90
2018-05-24T03:16:10.291Z,9.95
2018-05-24T03:18:38.491Z,10.57
2018-05-24T03:21:06.762Z,9.50
2018-05-24T03:23:34.918Z,9.90
2018-05-24T03:26:03.070Z,9.87
2018-05-24T03:28:32.211Z,10.40
2018-05-24T03:31:00.368Z,10.95
2018-05-24T03:33:28.525Z,10.20
2018-05-24T03:35:56.698Z,9.60
2018-05-24T03:38:24.884Z,10.90
2018-05-24T03:40:53.034Z,11.00
2018-05-24T03:43:21.224Z,10.80
2018-05-24T03:45:49.363Z,9.83
2018-05-24T03:48:17.526Z,10.10
2018-05-24T03:50:45.736Z,9.97
2018-05-24T03:53:13.971Z,9.40
2018-05-24T03:55:44.032Z,10.07
2018-05-24T03:58:13.482Z,9.80
2018-05-24T04:00:53.459Z,10.18
2018-05-24T04:03:33.379Z,10.00
2018-05-24T04:06:01.814Z,9.10
2018-05-24T04:08:29.963Z,9.97
2018-05-24T04:10:58.127Z,9.23
2018-05-24T04:13:26.272Z,9.57
2018-05-24T04:15:54.475Z,9.70
2018-05-24T04:18:22.622Z,9.37
2018-05-24T04:20:50.880Z,10.20
2018-05-24T04:23:19.028Z,9.40
2018-05-24T04:25:47.175Z,9.27
2018-05-24T04:28:15.366Z,10.93
2018-05-24T04:30:43.524Z,10.55
2018-05-24T04:33:11.715Z,10.30
2018-05-24T04:35:39.876Z,12.00
2018-05-24T04:38:09.555Z,10.20
2018-05-24T04:40:37.718Z,10.03
2018-05-24T04:43:05.902Z,10.47
2018-05-24T04:45:34.061Z,10.20
2018-05-24T04:48:03.229Z,10.97
2018-05-24T04:50:31.520Z,11.30
2018-05-24T04:52:59.669Z,9.87
2018-05-24T04:55:27.845Z,11.10
2018-05-24T04:57:56.005Z,11.27
2018-05-24T05:00:24.439Z,11.23
2018-05-24T05:02:52.611Z,10.23
2018-05-24T05:05:20.786Z,11.35
2018-05-24T05:07:48.959Z,10.53
2018-05-24T05:10:17.129Z,11.47
2018-05-24T05:12:45.310Z,11.05
2018-05-24T05:15:15.872Z,10.70
2018-05-24T05:17:44.981Z,10.47
2018-05-24T05:20:13.138Z,11.07
2018-05-24T05:22:41.331Z,11.60
2018-05-24T05:25:09.593Z,12.73
2018-05-24T05:27:37.720Z,11.90
2018-05-24T05:30:06.233Z,11.97
2018-05-24T05:32:34.406Z,11.90
2018-05-24T05:35:03.633Z,12.04
2018-05-24T05:37:31.893Z,12.10
2018-05-24T05:40:00.074Z,12.00
2018-05-24T05:42:28.223Z,12.53
2018-05-24T05:44:56.492Z,11.77
2018-05-24T05:47:24.570Z,11.00
2018-05-24T05:49:52.745Z,12.50
2018-05-24T05:52:21.271Z,12.13
2018-05-24T05:54:49.439Z,12.03
2018-05-24T05:57:17.606Z,12.02
2018-05-24T05:59:45.781Z,12.35
2018-05-24T06:02:13.956Z,11.52
2018-05-24T06:04:42.119Z,12.90
2018-05-24T06:07:10.278Z,12.47
2018-05-24T06:09:38.511Z,12.70
2018-05-24T06:12:10.169Z,13.70
2018-05-24T06:14:38.351Z,11.50
2018-05-24T06:17:06.511Z,13.07
2018-05-24T06:19:34.707Z,13.00
2018-05-24T06:22:02.886Z,13.00
2018-05-24T06:24:31.062Z,13.37
2018-05-24T06:26:59.240Z,12.20
2018-05-24T06:29:27.436Z,12.20
2018-05-24T06:31:55.600Z,13.07
2018-05-24T06:34:24.781Z,13.00
2018-05-24T06:36:54.405Z,12.63
2018-05-24T06:39:25.599Z,14.73
2018-05-24T06:41:53.861Z,13.73
2018-05-24T06:44:22.024Z,13.20
2018-05-24T06:46:50.170Z,13.38
2018-05-24T06:49:18.370Z,13.63
2018-05-24T06:51:46.525Z,13.30
2018-05-24T06:54:14.705Z,14.68
2018-05-24T06:56:42.869Z,14.75
2018-05-24T06:59:11.075Z,13.60
2018-05-24T07:01:39.252Z,14.95
2018-05-24T07:04:07.418Z,15.10
2018-05-24T07:06:35.585Z,13.70
2018-05-24T07:09:04.502Z,14.00
2018-05-24T07:11:32.734Z,14.70
2018-05-24T07:14:01.301Z,14.57
2018-05-24T07:16:29.500Z,15.37
2018-05-24T07:18:57.656Z,15.07
2018-05-24T07:21:25.855Z,15.90
2018-05-24T07:23:54.029Z,15.10
2018-05-24T07:26:22.202Z,16.07
2018-05-24T07:28:50.363Z,15.10
2018-05-24T07:31:18.547Z,15.93
2018-05-24T07:33:46.703Z,16.03
2018-05-24T07:36:14.889Z,15.27
2018-05-24T07:38:50.028Z,14.73
2018-05-24T07:41:18.235Z,15.77
2018-05-24T07:43:46.397Z,16.62
2018-05-24T07:46:14.555Z,15.70
2018-05-24T07:48:42.736Z,14.80
2018-05-24T07:51:10.935Z,15.23
2018-05-24T07:53:39.125Z,15.10
2018-05-24T07:56:07.297Z,15.87
2018-05-24T07:58:35.466Z,16.17
2018-05-24T08:01:03.635Z,15.30
2018-05-24T08:03:31.837Z,15.67
2018-05-24T08:05:59.980Z,16.80
2018-05-24T08:08:28.861Z,15.90
2018-05-24T08:10:57.042Z,15.57
2018-05-24T08:13:25.232Z,15.23
2018-05-24T08:15:55.594Z,16.30
2018-05-24T08:18:23.761Z,16.13
2018-05-24T08:20:51.917Z,16.80
2018-05-24T08:23:20.093Z,16.33
2018-05-24T08:25:48.315Z,17.20
2018-05-24T08:28:22.938Z,17.60
2018-05-24T08:30:51.115Z,17.00
2018-05-24T08:33:19.302Z,17.50
2018-05-24T08:35:47.469Z,17.57
2018-05-24T08:38:16.312Z,18.07
2018-05-24T08:40:44.508Z,16.50
2018-05-24T08:43:12.661Z,17.58
2018-05-24T08:45:40.796Z,16.13
2018-05-24T08:48:16.880Z,16.87
2018-05-24T08:50:45.019Z,17.48
2018-05-24T08:53:13.204Z,16.07
2018-05-24T08:55:41.383Z,15.90
2018-05-24T08:58:09.556Z,16.50
2018-05-24T09:00:37.712Z,16.43
2018-05-24T09:03:05.897Z,16.60
2018-05-24T09:05:34.064Z,17.10
2018-05-24T09:08:02.229Z,15.37
2018-05-24T09:10:30.424Z,16.10
2018-05-24T09:12:58.951Z,16.45
2018-05-24T09:15:27.108Z,16.13
2018-05-24T09:17:55.288Z,17.93
2018-05-24T09:20:23.501Z,17.20
2018-05-24T09:22:51.675Z,16.42
2018-05-24T09:25:19.846Z,17.17
2018-05-24T09:27:48.036Z,16.90
2018-05-24T09:30:17.303Z,16.70
2018-05-24T09:32:45.467Z,16.73
2018-05-24T09:35:13.617Z,16.40
2018-05-24T09:37:41.813Z,16.73
2018-05-24T09:40:09.984Z,17.97
2018-05-24T09:42:38.139Z,17.07
2018-05-24T09:45:06.320Z,17.37
2018-05-24T09:47:34.503Z,17.07
2018-05-24T09:50:02.689Z,17.77
2018-05-24T09:52:30.870Z,17.97
2018-05-24T09:54:59.059Z,17.90
2018-05-24T09:57:27.217Z,17.70
2018-05-24T09:59:55.403Z,17.47
2018-05-24T10:02:24.607Z,19.40
2018-05-24T10:04:52.801Z,19.17
2018-05-24T10:07:21.913Z,18.07
2018-05-24T10:09:50.091Z,18.70
2018-05-24T10:12:21.586Z,18.43
2018-05-24T10:14:49.736Z,19.33
2018-05-24T10:17:21.180Z,19.20
2018-05-24T10:19:49.348Z,20.43
2018-05-24T10:22:17.537Z,21.10
2018-05-24T10:24:45.701Z,21.50
2018-05-24T10:27:13.895Z,19.83
2018-05-24T10:29:42.048Z,21.67
2018-05-24T10:32:17.081Z,20.07
2018-05-24T10:34:45.281Z,20.23
2018-05-24T10:37:13.443Z,21.42
2018-05-24T10:39:41.618Z,20.50
2018-05-24T10:42:09.793Z,18.60
2018-05-24T10:44:37.993Z,18.17
2018-05-24T10:47:11.047Z,17.63
2018-05-24T10:49:39.237Z,18.07
2018-05-24T10:52:07.366Z,19.45
2018-05-24T10:54:36.466Z,19.50
2018-05-24T10:57:04.630Z,19.97
2018-05-24T10:59:32.828Z,18.47
2018-05-24T11:02:01.006Z,19.90
2018-05-24T11:04:29.187Z,20.07
2018-05-24T11:06:57.397Z,19.57
2018-05-24T11:09:25.558Z,17.50
2018-05-24T11:11:53.759Z,20.20
2018-05-24T11:14:24.591Z,19.53
2018-05-24T11:16:52.766Z,20.27
2018-05-24T11:19:20.919Z,19.67
2018-05-24T11:21:49.089Z,18.73
2018-05-24T11:24:17.561Z,18.67
2018-05-24T11:26:46.687Z,18.80
2018-05-24T11:29:14.845Z,20.27
2018-05-24T11:31:43.130Z,19.87
2018-05-24T11:34:11.226Z,18.60
2018-05-24T11:36:39.388Z,16.80
2018-05-24T11:39:11.122Z,17.57
2018-05-24T11:41:39.307Z,17.97
2018-05-24T11:44:07.561Z,20.60
2018-05-24T11:49:08.873Z,16.57
2018-05-24T11:51:37.679Z,16.90
2018-05-24T11:54:05.901Z,15.20
2018-05-24T11:56:34.079Z,16.77
2018-05-24T11:59:02.255Z,16.23
2018-05-24T12:01:30.423Z,16.03
2018-05-24T12:03:58.592Z,14.43
2018-05-24T12:06:26.773Z,15.90
2018-05-24T12:08:58.631Z,14.33
2018-05-24T12:11:26.815Z,13.90
2018-05-24T12:13:54.975Z,16.13
2018-05-24T12:16:23.147Z,14.90
2018-05-24T12:18:51.335Z,14.07
2018-05-24T12:21:19.508Z,13.83
2018-05-24T12:23:47.709Z,12.50
2018-05-24T12:26:15.863Z,13.77
2018-05-24T12:28:44.067Z,12.57
2018-05-24T12:31:12.292Z,13.60
2018-05-24T12:33:41.613Z,12.57
2018-05-24T12:36:12.538Z,11.90
2018-05-24T12:38:40.882Z,11.77
2018-05-24T12:41:09.762Z,13.47
2018-05-24T12:43:37.912Z,12.03
2018-05-24T12:46:06.087Z,12.80
2018-05-24T12:48:34.269Z,12.97
2018-05-24T12:51:02.442Z,12.27
2018-05-24T12:53:33.753Z,12.90
2018-05-24T12:56:01.938Z,13.50
2018-05-24T12:58:30.110Z,13.33
2018-05-24T13:00:58.297Z,12.93
2018-05-24T13:03:26.468Z,13.50
2018-05-24T13:05:54.626Z,12.03
2018-05-24T13:08:22.811Z,13.03
2018-05-24T13:10:50.982Z,19.85
2018-05-24T13:13:26.134Z,13.62
2018-05-24T13:15:54.294Z,15.38
2018-05-24T13:18:24.812Z,13.17
2018-05-24T13:20:52.964Z,12.00
2018-05-24T13:23:21.144Z,25.67
2018-05-24T13:25:49.320Z,11.73
2018-05-24T13:28:17.487Z,11.73
2018-05-24T13:30:47.262Z,13.02
2018-05-24T13:33:16.788Z,13.00
2018-05-24T13:35:44.961Z,14.07
2018-05-24T13:38:13.144Z,13.47
2018-05-24T13:40:41.340Z,12.73
2018-05-24T13:43:12.714Z,13.93
2018-05-24T13:45:42.252Z,13.73
2018-05-24T13:48:10.408Z,14.17
2018-05-24T13:50:38.609Z,13.17
2018-05-24T13:55:39.647Z,13.47
2018-05-24T13:58:07.808Z,15.00
2018-05-24T14:00:36.699Z,14.20
2018-05-24T14:03:04.868Z,12.37
2018-05-24T14:05:33.078Z,14.70
2018-05-24T14:08:01.219Z,13.73
2018-05-24T14:10:29.375Z,11.30
2018-05-24T14:12:58.236Z,12.00
2018-05-24T14:15:26.712Z,11.27
2018-05-24T14:17:54.900Z,12.80
2018-05-24T14:20:23.062Z,14.47
2018-05-24T14:22:51.325Z,12.50
2018-05-24T14:25:19.477Z,11.02
2018-05-24T14:27:47.691Z,10.75
2018-05-24T14:30:17.114Z,11.57
2018-05-24T14:32:45.441Z,11.98
2018-05-24T14:35:13.628Z,10.82
2018-05-24T14:37:41.804Z,9.73
2018-05-24T14:40:12.622Z,10.47
2018-05-24T14:42:40.792Z,9.83
2018-05-24T14:45:08.970Z,9.88
2018-05-24T14:47:39.585Z,8.80
2018-05-24T14:50:07.774Z,8.73
2018-05-24T14:52:35.996Z,9.27
2018-05-24T14:55:10.087Z,9.37
2018-05-24T14:57:38.269Z,8.77
2018-05-24T15:00:06.407Z,8.90
2018-05-24T15:02:34.578Z,9.20
2018-05-24T15:05:02.895Z,6.70
2018-05-24T15:07:31.049Z,6.70
2018-05-24T15:09:59.327Z,7.13
2018-05-24T15:12:27.493Z,7.40
2018-05-24T15:14:57.451Z,6.87
2018-05-24T15:17:25.664Z,6.47
2018-05-24T15:19:53.813Z,8.25
2018-05-24T15:22:33.490Z,6.87
2018-05-24T15:25:02.963Z,5.25
2018-05-24T15:27:31.394Z,4.63
2018-05-24T15:29:59.492Z,4.40
2018-05-24T15:32:28.182Z,5.47
2018-05-24T15:34:56.920Z,5.70
2018-05-24T15:37:25.056Z,5.93
2018-05-24T15:39:53.477Z,4.97
2018-05-24T15:42:21.683Z,5.67
2018-05-24T15:44:49.836Z,5.00
2018-05-24T15:47:17.993Z,5.50
2018-05-24T15:49:46.116Z,5.70
2018-05-24T15:52:14.228Z,5.90
2018-05-24T15:54:42.366Z,6.23
2018-05-24T15:57:10.474Z,5.50
2018-05-24T15:59:38.611Z,4.53
2018-05-24T16:02:06.759Z,5.33
2018-05-24T16:04:34.863Z,5.47
2018-05-24T16:09:37.558Z,8.57
2018-05-24T16:12:05.728Z,8.40
2018-05-24T16:14:33.892Z,8.63
2018-05-24T16:17:02.040Z,9.70
2018-05-24T16:20:11.747Z,11.10
2018-05-24T16:22:39.899Z,8.37
2018-05-24T16:25:08.049Z,11.23
2018-05-24T16:27:36.196Z,10.50
2018-05-24T16:30:04.316Z,11.00
2018-05-24T16:32:33.427Z,14.27
2018-05-24T16:35:01.556Z,11.23
2018-05-24T16:37:29.749Z,11.80
2018-05-24T16:39:57.875Z,11.70
2018-05-24T16:42:26.045Z,11.67
2018-05-24T16:44:54.156Z,11.97
2018-05-24T16:47:22.277Z,12.63
2018-05-24T16:49:50.452Z,13.13
2018-05-24T16:52:18.555Z,12.43
2018-05-24T16:54:46.713Z,12.23
2018-05-24T16:57:14.840Z,11.95
2018-05-24T16:59:42.966Z,11.63
2018-05-24T17:02:11.096Z,12.97
2018-05-24T17:04:39.242Z,13.17
2018-05-24T17:07:07.388Z,13.60
2018-05-24T17:09:35.526Z,13.10
2018-05-24T17:12:03.638Z,12.63
2018-05-24T17:14:32.183Z,13.27
2018-05-24T17:17:00.323Z,12.80
2018-05-24T17:19:28.452Z,11.80
2018-05-24T17:21:56.611Z,14.20
2018-05-24T17:24:24.746Z,13.40
2018-05-24T17:26:52.890Z,13.17
2018-05-24T17:29:21.024Z,11.90
2018-05-24T17:36:45.672Z,13.30
2018-05-24T17:39:17.414Z,12.30
2018-05-24T17:41:45.592Z,12.88
2018-05-24T17:44:13.770Z,12.50
2018-05-24T17:46:41.960Z,11.95
2018-05-24T17:49:10.133Z,11.30
2018-05-24T17:51:38.307Z,11.37
2018-05-24T17:54:09.807Z,12.50
2018-05-24T17:56:37.968Z,10.63
2018-05-24T17:59:06.250Z,12.43
2018-05-24T18:01:34.447Z,12.40
2018-05-24T18:04:02.630Z,13.90
2018-05-24T18:06:30.797Z,13.00
2018-05-24T18:08:59.007Z,14.03
2018-05-24T18:11:27.181Z,14.13
2018-05-24T18:13:55.373Z,14.00
2018-05-24T18:16:23.524Z,14.10
2018-05-24T18:18:52.441Z,14.40
2018-05-24T18:21:20.615Z,15.15
2018-05-24T18:23:48.799Z,13.18
2018-05-24T18:26:17.964Z,13.97
2018-05-24T18:28:46.619Z,13.40
2018-05-24T18:31:14.779Z,16.40
2018-05-24T18:33:42.947Z,15.13
2018-05-24T18:36:17.979Z,14.97
2018-05-24T18:38:46.147Z,12.80
2018-05-24T18:41:14.304Z,14.90
2018-05-24T18:43:42.493Z,14.55
2018-05-24T18:46:10.684Z,14.77
2018-05-24T18:48:38.871Z,15.70
2018-05-24T18:51:07.931Z,15.60
2018-05-24T18:53:37.949Z,15.03
2018-05-24T18:56:06.187Z,15.47
2018-05-24T18:58:34.356Z,9.83
2018-05-24T19:01:02.655Z,6.97
2018-05-24T19:03:30.842Z,4.00
2018-05-24T19:05:59.047Z,4.43
2018-05-24T19:08:27.249Z,3.40
2018-05-24T19:10:56.016Z,3.97
2018-05-24T19:13:25.776Z,3.97
2018-05-24T19:15:53.961Z,5.70
2018-05-24T19:18:22.141Z,6.40
2018-05-24T19:20:50.561Z,6.50
2018-05-24T19:23:18.730Z,7.07
2018-05-24T19:25:46.927Z,7.20
2018-05-24T19:28:15.466Z,6.82
2018-05-24T19:30:43.650Z,5.90
2018-05-24T19:33:11.854Z,6.60
2018-05-24T19:35:40.091Z,3.80
2018-05-24T19:38:08.254Z,4.87
2018-05-24T19:40:36.442Z,4.00
2018-05-24T19:43:04.637Z,4.23
2018-05-24T19:45:32.823Z,4.25
2018-05-24T19:48:00.980Z,4.40
2018-05-24T19:50:29.154Z,4.90
2018-05-24T19:52:57.338Z,4.60
2018-05-24T19:55:25.486Z,5.03
2018-05-24T19:57:53.725Z,5.00
2018-05-24T20:00:21.884Z,4.77
2018-05-24T20:02:50.735Z,5.53
2018-05-24T20:05:18.887Z,5.20
2018-05-24T20:07:47.098Z,5.50
2018-05-24T20:10:17.806Z,5.80
2018-05-24T20:12:45.999Z,6.40
2018-05-24T20:15:14.168Z,6.33
2018-05-24T20:17:42.375Z,5.70
2018-05-24T20:20:10.605Z,6.70
2018-05-24T20:22:38.755Z,6.70
2018-05-24T20:25:06.941Z,6.30
2018-05-24T20:27:35.091Z,6.25
2018-05-24T20:30:03.394Z,5.50
2018-05-24T20:32:31.583Z,6.27
2018-05-24T20:34:59.765Z,5.62
2018-05-24T20:37:27.942Z,6.20
2018-05-24T20:39:56.086Z,5.67
2018-05-24T20:42:24.269Z,6.90
2018-05-24T20:44:53.988Z,5.43
2018-05-24T20:47:24.293Z,5.10
2018-05-24T20:49:52.502Z,5.63
2018-05-24T20:52:20.658Z,5.40
2018-05-24T20:54:48.840Z,5.00
2018-05-24T20:57:17.019Z,5.83
2018-05-24T20:59:45.197Z,5.63
2018-05-24T21:02:13.417Z,5.80
2018-05-24T21:04:41.589Z,5.60
2018-05-24T21:07:10.463Z,4.70
2018-05-24T21:09:38.572Z,5.90
2018-05-24T21:12:06.783Z,5.17
2018-05-24T21:14:34.935Z,6.30
2018-05-24T21:17:03.385Z,6.00
2018-05-24T21:19:31.573Z,6.53
2018-05-24T21:22:00.149Z,5.10
2018-05-24T21:24:28.349Z,5.40
2018-05-24T21:26:56.494Z,6.10
2018-05-24T21:29:24.682Z,6.00
2018-05-24T21:31:52.900Z,5.57
2018-05-24T21:34:21.107Z,6.17
2018-05-24T21:36:49.322Z,6.57
2018-05-24T21:39:17.491Z,6.13
2018-05-24T21:41:45.642Z,5.90
2018-05-24T21:44:13.844Z,6.10
2018-05-24T21:46:42.027Z,6.10
2018-05-24T21:49:10.359Z,6.50
2018-05-24T21:51:38.532Z,7.57
2018-05-24T21:54:07.052Z,6.27
2018-05-24T21:56:35.220Z,6.30
2018-05-24T21:59:03.403Z,6.67
2018-05-24T22:01:31.581Z,6.40
2018-05-24T22:03:59.746Z,6.67
2018-05-24T22:06:27.946Z,6.97
2018-05-24T22:08:56.106Z,7.77
2018-05-24T22:11:24.293Z,8.97
2018-05-24T22:13:52.762Z,9.88
2018-05-24T22:16:21.017Z,8.37
2018-05-24T22:18:49.164Z,8.70
2018-05-24T22:21:17.347Z,6.63
2018-05-24T22:23:45.511Z,7.93
2018-05-24T22:26:15.140Z,8.10
2018-05-24T22:28:43.312Z,8.20
2018-05-24T22:31:14.384Z,7.20
2018-05-24T22:33:42.604Z,7.60
2018-05-24T22:36:10.762Z,8.18
2018-05-24T22:38:38.945Z,7.80
2018-05-24T22:41:07.124Z,7.23
2018-05-24T22:43:39.272Z,8.07
2018-05-24T22:46:07.444Z,8.00
2018-05-24T22:48:35.625Z,8.03
2018-05-24T22:51:03.829Z,8.00
2018-05-24T22:53:32.007Z,7.90
2018-05-24T22:56:01.720Z,8.45
2018-05-24T22:58:30.585Z,8.87
2018-05-24T23:00:58.786Z,8.13
2018-05-24T23:03:26.981Z,9.43
2018-05-24T23:05:55.165Z,9.20
2018-05-24T23:08:23.335Z,9.30
2018-05-24T23:10:51.517Z,8.90
2018-05-24T23:13:19.685Z,9.97
2018-05-24T23:15:47.862Z,9.53
2018-05-24T23:18:16.020Z,9.10
2018-05-24T23:20:44.210Z,9.20
2018-05-24T23:23:12.367Z,9.50
2018-05-24T23:25:40.529Z,8.93
2018-05-24T23:28:08.717Z,10.30
2018-05-24T23:30:36.891Z,9.80
2018-05-24T23:33:05.071Z,8.70
2018-05-24T23:35:33.222Z,9.00
2018-05-24T23:38:01.400Z,9.23
2018-05-24T23:40:29.588Z,8.73
2018-05-24T23:42:57.837Z,8.82
2018-05-24T23:45:25.994Z,7.87
2018-05-24T23:47:54.235Z,8.17
2018-05-24T23:50:22.403Z,8.40
2018-05-24T23:52:50.591Z,8.02
2018-05-24T23:55:18.812Z,7.60
2018-05-24T23:57:46.970Z,6.73
